»·PEaware :: CGMWT O09-KRDD

CGMWT :: O09-KRDD

FLIGHT INFORMATION

Flight Status: Arrived
Operator: Unknown
More flights by this operator :: More flights under this callsign
Pilot: Konrad W. (32064)
Aircraft: Diamond DA-40
(DA40)
More flights by this aircraft type
Origin: O09 Round Valley
United States
Destination: KRDD Redding Mun
United States
More flights between these airports :: More routes between these airports
Route:
File this flight plan on PilotEdge
Remarks:
Altitude:
(Current/Filed)
5,500ft
Speed:
(Current/Filed)
150kts
Departed: 21-Nov-20 05:19 PM
Arrived: 21-Nov-20 05:59 PM
Distance/Time
Traveled:
62nm/0:40
Distance/Time
To Go:
Arrived

Flight Plot

Page will automatically refresh every two minutes.

Flight plan parsing failed; only flown route is shown


Map Options




Map Legend


Flown Route
Filed Route
Departure Airport
Arrival Airport
Navaid (VOR, NDB)
Fix

Horizontal Profiles

Position Reports

Time Latitude Longitude Heading Altitude Ground
Speed
21-Nov-20 17:15 39.788590 -123.263160 206 1427ft 0kts
21-Nov-20 17:16 39.788590 -123.263160 206 1427ft 0kts
21-Nov-20 17:17 39.788878 -123.262657 113 1428ft 8kts
21-Nov-20 17:18 39.789604 -123.263642 292 1431ft 50kts
21-Nov-20 17:19 39.804723 -123.280470 24 1991ft 87kts
21-Nov-20 17:20 39.818830 -123.252802 80 2724ft 94kts
21-Nov-20 17:21 39.822054 -123.218678 94 3511ft 97kts
21-Nov-20 17:22 39.820133 -123.181701 93 4251ft 105kts
21-Nov-20 17:23 39.817092 -123.142371 99 4913ft 111kts
21-Nov-20 17:24 39.813009 -123.102313 98 5613ft 111kts
21-Nov-20 17:25 39.809204 -123.062169 98 6323ft 112kts
21-Nov-20 17:26 39.805275 -123.021112 98 7049ft 116kts
21-Nov-20 17:27 39.801049 -122.977223 98 7467ft 132kts
21-Nov-20 17:28 39.796210 -122.927573 97 7492ft 141kts
21-Nov-20 17:29 39.795650 -122.876348 91 7496ft 141kts
21-Nov-20 17:30 39.797559 -122.825782 87 7494ft 139kts
21-Nov-20 17:31 39.800139 -122.775347 86 7504ft 141kts
21-Nov-20 17:32 39.821406 -122.733173 54 7503ft 141kts
21-Nov-20 17:33 39.843692 -122.693255 53 7488ft 127kts
21-Nov-20 17:34 39.865324 -122.654577 54 7056ft 139kts
21-Nov-20 17:35 39.888329 -122.613487 54 6444ft 136kts
21-Nov-20 17:36 39.910254 -122.574310 54 5836ft 132kts
21-Nov-20 17:37 39.931063 -122.537118 54 5516ft 118kts
21-Nov-20 17:38 39.949659 -122.503866 54 5501ft 110kts
21-Nov-20 17:39 39.967615 -122.471788 54 5503ft 109kts
21-Nov-20 17:40 39.986642 -122.441601 8 5494ft 108kts
21-Nov-20 17:41 40.014208 -122.439531 12 5504ft 107kts
21-Nov-20 17:42 40.043469 -122.430625 12 5500ft 108kts
21-Nov-20 17:43 40.072831 -122.421785 12 5498ft 108kts
21-Nov-20 17:44 40.104504 -122.412273 12 5106ft 126kts
21-Nov-20 17:45 40.139377 -122.401810 12 4489ft 129kts
21-Nov-20 17:46 40.174378 -122.391303 12 3879ft 128kts
21-Nov-20 17:47 40.208910 -122.380930 12 3278ft 127kts
21-Nov-20 17:48 40.243214 -122.370613 12 2676ft 126kts
21-Nov-20 17:50 40.277330 -122.360353 12 2073ft 125kts
21-Nov-20 17:51 40.310821 -122.350258 12 1562ft 118kts
21-Nov-20 17:52 40.338554 -122.333106 20 1501ft 105kts
21-Nov-20 17:53 40.365767 -122.320547 17 1503ft 102kts
21-Nov-20 17:54 40.393105 -122.310430 14 1502ft 102kts
21-Nov-20 17:55 40.420743 -122.301966 11 1500ft 102kts
21-Nov-20 17:56 40.450184 -122.294512 1 1192ft 112kts
21-Nov-20 17:57 40.479960 -122.294861 358 777ft 93kts
21-Nov-20 17:58 40.505429 -122.294902 359 498ft 79kts
21-Nov-20 17:59 40.514233 -122.295973 270 502ft 0kts
21-Nov-20 18:00 40.515913 -122.296409 329 502ft 23kts
21-Nov-20 18:01 40.510966 -122.299532 270 501ft 17kts
21-Nov-20 18:02 40.510829 -122.299940 173 500ft 0kts
21-Nov-20 18:03 40.510829 -122.299940 173 500ft 0kts
21-Nov-20 18:04 40.510829 -122.299940 173 500ft 0kts
21-Nov-20 18:04 40.510829 -122.299940 173 500ft 0kts
21-Nov-20 18:06 40.510829 -122.299940 173 500ft 0kts
21-Nov-20 18:07 40.510829 -122.299940 173 500ft 0kts
21-Nov-20 18:07 40.510829 -122.299940 173 500ft 0kts
21-Nov-20 18:09 40.510829 -122.299940 173 500ft 0kts
21-Nov-20 18:09 40.510829 -122.299940 173 500ft 0kts
21-Nov-20 18:11 40.510829 -122.299940 173 500ft 0kts
21-Nov-20 18:11 40.510829 -122.299940 173 500ft 0kts
21-Nov-20 18:12 40.510829 -122.299940 173 500ft 0kts
21-Nov-20 18:13 40.510829 -122.299940 173 500ft 0kts

Navigation Log

Ident Type
Flight plan parsing failed, navigation log unavailable